| time (UTC) | temp F | wind direction | speed knots | gust knots | rain 1hr in | rain 24hr in | rain mn in | humidity % | barometer mb |
| 20260504220003 | 76 | 166 | 1.7 | 4.3 | 0.00 | 0.00 | 0.00 | 43 | 1013.0 |
| 20260504215624 | 77 | 145 | 1.7 | 3.5 | 0.00 | 0.00 | 0.00 | 42 | 1012.9 |
| 20260504215203 | 77 | 168 | 1.7 | 3.5 | 0.00 | 0.00 | 0.00 | 39 | 1012.9 |
| 20260504214803 | 78 | 188 | 1.7 | 3.5 | 0.00 | 0.00 | 0.00 | 43 | 1012.9 |
| 20260504214403 | 77 | 168 | 0.9 | 3.5 | 0.00 | 0.00 | 0.00 | 41 | 1013.1 |
| 20260504214003 | 78 | 170 | 1.7 | 3.5 | 0.00 | 0.00 | 0.00 | 37 | 1013.1 |
| 20260504213624 | 77 | 170 | 0.9 | 3.5 | 0.00 | 0.00 | 0.00 | 41 | 1013.1 |
| 20260504213203 | 78 | 190 | 0.9 | 2.6 | 0.00 | 0.00 | 0.00 | 45 | 1013.1 |
| 20260504212803 | 78 | 137 | 0.9 | 3.5 | 0.00 | 0.00 | 0.00 | 42 | 1013.1 |
| 20260504212403 | 78 | 126 | 0.9 | 4.3 | 0.00 | 0.00 | 0.00 | 40 | 1013.1 |
| 20260504212003 | 78 | 150 | 1.7 | 7.0 | 0.00 | 0.00 | 0.00 | 38 | 1013.2 |
| 20260504211603 | 78 | 163 | 1.7 | 7.0 | 0.00 | 0.00 | 0.00 | 38 | 1013.2 |
| 20260504211203 | 78 | 184 | 1.7 | 7.0 | 0.00 | 0.00 | 0.00 | 38 | 1013.1 |
| 20260504210803 | 78 | 176 | 1.7 | 7.0 | 0.00 | 0.00 | 0.00 | 43 | 1013.1 |
| 20260504210403 | 78 | 188 | 1.7 | 5.2 | 0.00 | 0.00 | 0.00 | 42 | 1013.1 |
| 20260504210004 | 78 | 179 | 1.7 | 5.2 | 0.00 | 0.00 | 0.00 | 43 | 1013.1 |
| 20260504205603 | 79 | 144 | 1.7 | 5.2 | 0.00 | 0.00 | 0.00 | 40 | 1013.2 |
| 20260504205203 | 78 | 116 | 0.9 | 5.2 | 0.00 | 0.00 | 0.00 | 39 | 1013.3 |
| 20260504204803 | 78 | 105 | 0.9 | 2.6 | 0.00 | 0.00 | 0.00 | 45 | 1013.3 |
| 20260504204403 | 79 | 130 | 0.9 | 2.6 | 0.00 | 0.00 | 0.00 | 40 | 1013.3 |
| 20260504204003 | 80 | 155 | 0.9 | 3.5 | 0.00 | 0.00 | 0.00 | 37 | 1013.2 |
| 20260504203603 | 79 | 161 | 0.9 | 4.3 | 0.00 | 0.00 | 0.00 | 39 | 1013.3 |
| 20260504203203 | 78 | 147 | 1.7 | 7.0 | 0.00 | 0.00 | 0.00 | 42 | 1013.3 |
| 20260504202803 | 78 | 178 | 2.6 | 7.0 | 0.00 | 0.00 | 0.00 | 43 | 1013.4 |
| 20260504202403 | 78 | 242 | 1.7 | 7.0 | 0.00 | 0.00 | 0.00 | 42 | 1013.4 |
| 20260504202003 | 78 | 278 | 1.7 | 3.5 | 0.00 | 0.00 | 0.00 | 49 | 1013.5 |
| 20260504201603 | 78 | 260 | 1.7 | 3.5 | 0.00 | 0.00 | 0.00 | 46 | 1013.5 |
| 20260504201203 | 77 | 231 | 0.9 | 3.5 | 0.00 | 0.00 | 0.00 | 44 | 1013.6 |
| 20260504200824 | 77 | 187 | 0.9 | 3.5 | 0.00 | 0.00 | 0.00 | 45 | 1013.6 |
| 20260504200403 | 78 | 224 | 1.7 | 9.6 | 0.00 | 0.00 | 0.00 | 38 | 1013.5 |
| 20260504200004 | 78 | 216 | 1.7 | 9.6 | 0.00 | 0.00 | 0.00 | 40 | 1013.6 |
| 20260504195624 | 79 | 200 | 1.7 | 9.6 | 0.00 | 0.00 | 0.00 | 41 | 1013.6 |
| 20260504195203 | 79 | 169 | 1.7 | 7.0 | 0.00 | 0.00 | 0.00 | 38 | 1013.7 |
| 20260504194803 | 79 | 171 | 1.7 | 7.0 | 0.00 | 0.00 | 0.00 | 38 | 1013.9 |
| 20260504194403 | 79 | 163 | 1.7 | 7.0 | 0.00 | 0.00 | 0.00 | 40 | 1013.9 |
| 20260504194003 | 79 | 148 | 1.7 | 3.5 | 0.00 | 0.00 | 0.00 | 40 | 1014.0 |
| 20260504193603 | 79 | 129 | 1.7 | 4.3 | 0.00 | 0.00 | 0.00 | 40 | 1014.0 |
| 20260504193203 | 78 | 163 | 1.7 | 4.3 | 0.00 | 0.00 | 0.00 | 40 | 1014.1 |
| 20260504192824 | 79 | 229 | 1.7 | 4.3 | 0.00 | 0.00 | 0.00 | 41 | 1014.2 |
| 20260504192403 | 79 | 302 | 1.7 | 3.5 | 0.00 | 0.00 | 0.00 | 38 | 1014.1 |
| 20260504192003 | 78 | 96 | 1.7 | 3.5 | 0.00 | 0.00 | 0.00 | 40 | 1014.2 |
| 20260504191603 | 80 | 114 | 1.7 | 4.3 | 0.00 | 0.00 | 0.00 | 36 | 1014.2 |
| 20260504191203 | 79 | 132 | 1.7 | 4.3 | 0.00 | 0.00 | 0.00 | 37 | 1014.3 |
| 20260504190803 | 78 | 356 | 0.9 | 2.6 | 0.00 | 0.00 | 0.00 | 45 | 1014.4 |
| 20260504190424 | 78 | 296 | 0.9 | 3.5 | 0.00 | 0.00 | 0.00 | 42 | 1014.4 |
| 20260504190003 | 78 | 231 | 1.7 | 3.5 | 0.00 | 0.00 | 0.00 | 38 | 1014.4 |
| 20260504185603 | 77 | 215 | 1.7 | 3.5 | 0.00 | 0.00 | 0.00 | 44 | 1014.6 |
| 20260504185203 | 78 | 181 | 1.7 | 4.3 | 0.00 | 0.00 | 0.00 | 42 | 1014.6 |
| 20260504184803 | 78 | 174 | 1.7 | 4.3 | 0.00 | 0.00 | 0.00 | 44 | 1014.8 |
| 20260504184403 | 78 | 205 | 1.7 | 4.3 | 0.00 | 0.00 | 0.00 | 38 | 1014.8 |
| 20260504184003 | 78 | 311 | 1.7 | 4.3 | 0.00 | 0.00 | 0.00 | 44 | 1014.9 |
| 20260504183603 | 78 | 303 | 0.9 | 4.3 | 0.00 | 0.00 | 0.00 | 45 | 1015.0 |
| 20260504183203 | 78 | 186 | 0.9 | 2.6 | 0.00 | 0.00 | 0.00 | 44 | 1015.0 |
| 20260504182803 | 77 | 251 | 0.9 | 5.2 | 0.00 | 0.00 | 0.00 | 44 | 1015.0 |
| 20260504182403 | 77 | 236 | 1.7 | 5.2 | 0.00 | 0.00 | 0.00 | 43 | 1015.1 |
| 20260504182003 | 77 | 189 | 1.7 | 5.2 | 0.00 | 0.00 | 0.00 | 45 | 1015.2 |
| 20260504181603 | 77 | 186 | 0.9 | 3.5 | 0.00 | 0.00 | 0.00 | 43 | 1015.2 |
| 20260504181203 | 78 | 267 | 0.9 | 3.5 | 0.00 | 0.00 | 0.00 | 42 | 1015.2 |
| 20260504180803 | 77 | 318 | 0.9 | 2.6 | 0.00 | 0.00 | 0.00 | 47 | 1015.2 |
| 20260504180403 | 77 | 318 | 0.9 | 2.6 | 0.00 | 0.00 | 0.00 | 50 | 1015.3 |
| 20260504180003 | 78 | 304 | 0.9 | 2.6 | 0.00 | 0.00 | 0.00 | 49 | 1015.3 |
| 20260504175624 | 77 | 302 | 1.7 | 3.5 | 0.00 | 0.00 | 0.00 | 42 | 1015.4 |
| 20260504175203 | 78 | 292 | 0.9 | 3.5 | 0.00 | 0.00 | 0.00 | 43 | 1015.5 |
| 20260504174803 | 77 | 289 | 0.9 | 3.5 | 0.00 | 0.00 | 0.00 | 48 | 1015.6 |
| 20260504174403 | 76 | 304 | 0.9 | 2.6 | 0.00 | 0.00 | 0.00 | 45 | 1015.6 |
| 20260504174003 | 76 | 81 | 0.9 | 2.6 | 0.00 | 0.00 | 0.00 | 45 | 1015.7 |
| 20260504173603 | 76 | 88 | 0.9 | 3.5 | 0.00 | 0.00 | 0.00 | 48 | 1015.7 |
| 20260504173204 | 76 | 261 | 0.9 | 3.5 | 0.00 | 0.00 | 0.00 | 48 | 1015.7 |
| 20260504172803 | 76 | 256 | 1.7 | 3.5 | 0.00 | 0.00 | 0.00 | 44 | 1015.7 |
| 20260504172424 | 76 | 257 | 1.7 | 3.5 | 0.00 | 0.00 | 0.00 | 47 | 1015.8 |
| 20260504172003 | 76 | 187 | 0.9 | 3.5 | 0.00 | 0.00 | 0.00 | 51 | 1015.9 |
| 20260504171603 | 77 | 169 | 0.9 | 3.5 | 0.00 | 0.00 | 0.00 | 44 | 1015.9 |
| 20260504171203 | 76 | 174 | 0.9 | 3.5 | 0.00 | 0.00 | 0.00 | 44 | 1016.0 |
| 20260504170824 | 76 | 150 | 0.9 | 2.6 | 0.00 | 0.00 | 0.00 | 47 | 1016.1 |
| 20260504170403 | 75 | 136 | 0.9 | 7.0 | 0.00 | 0.00 | 0.00 | 50 | 1016.1 |
| 20260504160403 | 74 | 288 | 1.7 | 5.2 | 0.00 | 0.00 | 0.00 | 53 | 1016.9 |
| 20260504150803 | 69 | 275 | 0.9 | 2.6 | 0.00 | 0.00 | 0.00 | 61 | 1017.1 |
| 20260504150424 | 68 | 243 | 0.9 | 2.6 | 0.00 | 0.00 | 0.00 | 65 | 1017.1 |
| 20260504141203 | 61 | 0 | 0.0 | 0.0 | 0.00 | 0.00 | 0.00 | 78 | 1017.3 |
| 20260504140803 | 60 | 0 | 0.0 | 0.0 | 0.00 | 0.00 | 0.00 | 74 | 1017.4 |
| 20260504140403 | 60 | 0 | 0.0 | 0.0 | 0.00 | 0.00 | 0.00 | 77 | 1017.5 |
| 20260504130803 | 52 | 0 | 0.0 | 0.0 | 0.00 | 0.00 | 0.00 | 92 | 1017.7 |
| 20260504130403 | 51 | 0 | 0.0 | 0.0 | 0.00 | 0.00 | 0.00 | 92 | 1017.7 |
| 20260504110424 | 44 | 0 | 0.0 | 0.0 | 0.00 | 0.00 | 0.00 | 93 | 1017.1 |
| 20260504100403 | 45 | 0 | 0.0 | 0.0 | 0.00 | 0.00 | 0.00 | 93 | 1017.0 |
| 20260504081603 | 46 | 0 | 0.0 | 0.0 | 0.00 | 0.00 | 0.00 | 93 | 1016.8 |
| 20260504081203 | 46 | 0 | 0.0 | 0.0 | 0.00 | 0.00 | 0.00 | 93 | 1016.8 |
| 20260504080803 | 46 | 0 | 0.0 | 0.0 | 0.00 | 0.00 | 0.00 | 93 | 1016.9 |
| 20260504080403 | 46 | 0 | 0.0 | 0.0 | 0.00 | 0.00 | 0.00 | 93 | 1016.9 |
| 20260504070403 | 47 | 0 | 0.0 | 0.0 | 0.00 | 0.00 | 0.00 | 93 | 1017.2 |
| 20260504050424 | 49 | 0 | 0.0 | 0.0 | 0.00 | 0.00 | 0.00 | 92 | 1017.9 |
| 20260504050003 | 50 | 0 | 0.0 | 0.0 | 0.00 | 0.00 | 0.00 | 92 | 1017.9 |
| 20260504045603 | 50 | 0 | 0.0 | 0.0 | 0.00 | 0.00 | 0.00 | 92 | 1018.0 |
| 20260504045203 | 50 | 0 | 0.0 | 0.0 | 0.00 | 0.00 | 0.00 | 92 | 1018.0 |
| 20260504044803 | 50 | 0 | 0.0 | 0.0 | 0.00 | 0.00 | 0.00 | 92 | 1018.0 |
| 20260504044403 | 50 | 0 | 0.0 | 0.0 | 0.00 | 0.00 | 0.00 | 92 | 1018.0 |
| 20260504044003 | 50 | 0 | 0.0 | 0.0 | 0.00 | 0.00 | 0.00 | 92 | 1018.0 |
| 20260504043603 | 50 | 0 | 0.0 | 0.0 | 0.00 | 0.00 | 0.00 | 92 | 1018.1 |
| 20260504043203 | 50 | 0 | 0.0 | 0.0 | 0.00 | 0.00 | 0.00 | 91 | 1018.2 |
| 20260504042803 | 50 | 0 | 0.0 | 0.0 | 0.00 | 0.00 | 0.00 | 92 | 1018.2 |
| 20260504042403 | 50 | 0 | 0.0 | 0.0 | 0.00 | 0.00 | 0.00 | 91 | 1018.2 |
| 20260504042003 | 50 | 0 | 0.0 | 0.0 | 0.00 | 0.00 | 0.00 | 92 | 1018.2 |
| 20260504041603 | 50 | 0 | 0.0 | 0.0 | 0.00 | 0.00 | 0.00 | 91 | 1018.1 |
| 20260504041203 | 50 | 0 | 0.0 | 0.0 | 0.00 | 0.00 | 0.00 | 91 | 1018.1 |
| 20260504040803 | 51 | 0 | 0.0 | 0.0 | 0.00 | 0.00 | 0.00 | 91 | 1018.1 |
| 20260504040403 | 51 | 0 | 0.0 | 0.0 | 0.00 | 0.00 | 0.00 | 91 | 1018.1 |
| 20260504040003 | 51 | 0 | 0.0 | 0.0 | 0.00 | 0.00 | 0.00 | 91 | 1018.1 |
| 20260504035624 | 51 | 0 | 0.0 | 0.0 | 0.00 | 0.00 | 0.00 | 91 | 1018.1 |
| 20260504035224 | 51 | 0 | 0.0 | 0.0 | 0.00 | 0.00 | 0.00 | 91 | 1018.3 |
| 20260504034803 | 51 | 0 | 0.0 | 0.0 | 0.00 | 0.00 | 0.00 | 91 | 1018.3 |
| 20260504034403 | 51 | 0 | 0.0 | 0.0 | 0.00 | 0.00 | 0.00 | 91 | 1018.4 |
| 20260504034003 | 51 | 0 | 0.0 | 0.0 | 0.00 | 0.00 | 0.00 | 91 | 1018.4 |
| 20260504033603 | 52 | 0 | 0.0 | 0.0 | 0.00 | 0.00 | 0.00 | 91 | 1018.4 |
| 20260504033203 | 52 | 0 | 0.0 | 0.0 | 0.00 | 0.00 | 0.00 | 91 | 1018.4 |
| 20260504032803 | 52 | 0 | 0.0 | 0.0 | 0.00 | 0.00 | 0.00 | 91 | 1018.5 |
| 20260504032403 | 52 | 0 | 0.0 | 0.0 | 0.00 | 0.00 | 0.00 | 91 | 1018.6 |
| 20260504032003 | 52 | 0 | 0.0 | 0.0 | 0.00 | 0.00 | 0.00 | 91 | 1018.5 |
| 20260504031624 | 52 | 0 | 0.0 | 0.0 | 0.00 | 0.00 | 0.00 | 91 | 1018.5 |
| 20260504031203 | 52 | 0 | 0.0 | 0.0 | 0.00 | 0.00 | 0.00 | 91 | 1018.4 |
| 20260504030803 | 52 | 0 | 0.0 | 0.0 | 0.00 | 0.00 | 0.00 | 91 | 1018.5 |
| 20260504030403 | 52 | 0 | 0.0 | 0.0 | 0.00 | 0.00 | 0.00 | 91 | 1018.4 |
| 20260504030003 | 52 | 0 | 0.0 | 0.0 | 0.00 | 0.00 | 0.00 | 90 | 1018.4 |
| 20260504025603 | 52 | 0 | 0.0 | 0.0 | 0.00 | 0.00 | 0.00 | 91 | 1018.3 |
| 20260504025203 | 52 | 0 | 0.0 | 0.0 | 0.00 | 0.00 | 0.00 | 90 | 1018.3 |
| 20260504024803 | 52 | 0 | 0.0 | 0.0 | 0.00 | 0.00 | 0.00 | 89 | 1018.3 |
| 20260504024403 | 53 | 0 | 0.0 | 0.0 | 0.00 | 0.00 | 0.00 | 89 | 1018.2 |
| 20260504024003 | 53 | 0 | 0.0 | 0.0 | 0.00 | 0.00 | 0.00 | 89 | 1018.3 |
| 20260504023624 | 53 | 0 | 0.0 | 0.0 | 0.00 | 0.00 | 0.00 | 89 | 1018.3 |
| 20260504023203 | 53 | 0 | 0.0 | 0.0 | 0.00 | 0.00 | 0.00 | 88 | 1018.1 |
| 20260504022803 | 54 | 0 | 0.0 | 0.0 | 0.00 | 0.00 | 0.00 | 88 | 1018.1 |
| 20260504022403 | 54 | 0 | 0.0 | 0.0 | 0.00 | 0.00 | 0.00 | 89 | 1018.1 |
| 20260504022003 | 54 | 0 | 0.0 | 0.0 | 0.00 | 0.00 | 0.00 | 88 | 1018.0 |
| 20260504021603 | 54 | 0 | 0.0 | 0.0 | 0.00 | 0.00 | 0.00 | 87 | 1017.9 |
| 20260504021203 | 54 | 0 | 0.0 | 0.0 | 0.00 | 0.00 | 0.00 | 87 | 1017.9 |
| 20260504020803 | 54 | 0 | 0.0 | 0.0 | 0.00 | 0.00 | 0.00 | 86 | 1017.9 |
| 20260504020403 | 55 | 0 | 0.0 | 0.0 | 0.00 | 0.00 | 0.00 | 86 | 1017.9 |
| 20260504020003 | 55 | 0 | 0.0 | 0.0 | 0.00 | 0.00 | 0.00 | 86 | 1017.8 |
| 20260504015603 | 55 | 0 | 0.0 | 0.0 | 0.00 | 0.00 | 0.00 | 85 | 1017.9 |
| 20260504015203 | 55 | 0 | 0.0 | 0.0 | 0.00 | 0.00 | 0.00 | 84 | 1017.8 |
| 20260504014803 | 55 | 0 | 0.0 | 0.0 | 0.00 | 0.00 | 0.00 | 84 | 1017.9 |
| 20260504014403 | 56 | 0 | 0.0 | 0.0 | 0.00 | 0.00 | 0.00 | 84 | 1017.9 |
| 20260504014003 | 56 | 0 | 0.0 | 0.0 | 0.00 | 0.00 | 0.00 | 83 | 1017.8 |
| 20260504013603 | 56 | 0 | 0.0 | 0.0 | 0.00 | 0.00 | 0.00 | 83 | 1017.7 |
| 20260504013203 | 56 | 0 | 0.0 | 0.0 | 0.00 | 0.00 | 0.00 | 82 | 1017.6 |
| 20260504012803 | 56 | 0 | 0.0 | 0.0 | 0.00 | 0.00 | 0.00 | 81 | 1017.5 |
| 20260504012403 | 57 | 0 | 0.0 | 0.0 | 0.00 | 0.00 | 0.00 | 81 | 1017.4 |
| 20260504012003 | 57 | 0 | 0.0 | 0.0 | 0.00 | 0.00 | 0.00 | 80 | 1017.5 |
| 20260504011603 | 57 | 0 | 0.0 | 0.0 | 0.00 | 0.00 | 0.00 | 80 | 1017.5 |
| 20260504011203 | 58 | 0 | 0.0 | 0.0 | 0.00 | 0.00 | 0.00 | 78 | 1017.5 |
| 20260504010803 | 58 | 0 | 0.0 | 0.0 | 0.00 | 0.00 | 0.00 | 77 | 1017.4 |
| 20260504010403 | 58 | 0 | 0.0 | 0.0 | 0.00 | 0.00 | 0.00 | 77 | 1017.4 |
| 20260504010003 | 59 | 0 | 0.0 | 0.0 | 0.00 | 0.00 | 0.00 | 76 | 1017.4 |
| 20260504005603 | 59 | 0 | 0.0 | 0.0 | 0.00 | 0.00 | 0.00 | 75 | 1017.3 |
| 20260504005203 | 59 | 0 | 0.0 | 0.0 | 0.00 | 0.00 | 0.00 | 74 | 1017.4 |
| 20260504004804 | 60 | 0 | 0.0 | 0.0 | 0.00 | 0.00 | 0.00 | 74 | 1017.3 |
| 20260504004404 | 60 | 0 | 0.0 | 0.0 | 0.00 | 0.00 | 0.00 | 72 | 1017.3 |
| 20260504004004 | 60 | 0 | 0.0 | 0.0 | 0.00 | 0.00 | 0.00 | 71 | 1017.3 |
| 20260504003625 | 61 | 0 | 0.0 | 0.0 | 0.00 | 0.00 | 0.00 | 70 | 1017.2 |
| 20260504003225 | 61 | 0 | 0.0 | 0.0 | 0.00 | 0.00 | 0.00 | 69 | 1017.2 |
| 20260504002804 | 62 | 0 | 0.0 | 0.0 | 0.00 | 0.00 | 0.00 | 68 | 1017.2 |
| 20260504002404 | 62 | 0 | 0.0 | 0.0 | 0.00 | 0.00 | 0.00 | 67 | 1017.1 |
| 20260504002004 | 62 | 0 | 0.0 | 0.0 | 0.00 | 0.00 | 0.00 | 66 | 1017.1 |
| 20260504001604 | 63 | 0 | 0.0 | 0.0 | 0.00 | 0.00 | 0.00 | 65 | 1017.1 |
| 20260504001204 | 63 | 0 | 0.0 | 0.0 | 0.00 | 0.00 | 0.00 | 65 | 1017.1 |
| 20260504000825 | 64 | 0 | 0.0 | 0.0 | 0.00 | 0.00 | 0.00 | 64 | 1017.1 |
| 20260504000404 | 64 | 0 | 0.0 | 0.0 | 0.00 | 0.00 | 0.00 | 60 | 1017.0 |
| 20260504000004 | 65 | 0 | 0.0 | 0.0 | 0.00 | 0.00 | 0.00 | 59 | 1017.0 |
| 20260503235625 | 65 | 0 | 0.0 | 0.0 | 0.00 | 0.00 | 0.00 | 56 | 1017.1 |
| 20260503235204 | 65 | 0 | 0.0 | 0.0 | 0.00 | 0.00 | 0.00 | 57 | 1017.0 |
| 20260503234804 | 66 | 0 | 0.0 | 0.0 | 0.00 | 0.00 | 0.00 | 54 | 1016.9 |
| 20260503234404 | 66 | 0 | 0.0 | 0.0 | 0.00 | 0.00 | 0.00 | 51 | 1017.0 |
| 20260503234025 | 66 | 0 | 0.0 | 0.9 | 0.00 | 0.00 | 0.00 | 50 | 1016.9 |
| 20260503233604 | 67 | 0 | 0.0 | 0.9 | 0.00 | 0.00 | 0.00 | 52 | 1016.9 |
| 20260503233204 | 67 | 0 | 0.0 | 0.9 | 0.00 | 0.00 | 0.00 | 50 | 1016.9 |
| 20260503232804 | 67 | 0 | 0.0 | 0.9 | 0.00 | 0.00 | 0.00 | 48 | 1016.9 |
| 20260503232425 | 67 | 0 | 0.0 | 0.9 | 0.00 | 0.00 | 0.00 | 48 | 1016.9 |
| 20260503232004 | 68 | 272 | 0.0 | 2.6 | 0.00 | 0.00 | 0.00 | 47 | 1016.9 |
| 20260503231625 | 68 | 273 | 0.0 | 2.6 | 0.00 | 0.00 | 0.00 | 47 | 1016.9 |
| 20260503231204 | 68 | 324 | 0.9 | 2.6 | 0.00 | 0.00 | 0.00 | 48 | 1017.1 |
| 20260503230804 | 68 | 333 | 0.9 | 3.5 | 0.00 | 0.00 | 0.00 | 45 | 1017.1 |
| 20260503230404 | 69 | 344 | 0.0 | 3.5 | 0.00 | 0.00 | 0.00 | 48 | 1017.1 |
| 20260503230004 | 69 | 342 | 0.0 | 3.5 | 0.00 | 0.00 | 0.00 | 49 | 1017.1 |
| 20260503225604 | 68 | 342 | 0.9 | 3.5 | 0.00 | 0.00 | 0.00 | 44 | 1017.1 |
| 20260503225204 | 69 | 341 | 0.9 | 3.5 | 0.00 | 0.00 | 0.00 | 46 | 1017.1 |
| 20260503224804 | 69 | 338 | 0.9 | 3.5 | 0.00 | 0.00 | 0.00 | 42 | 1017.1 |
| 20260503224404 | 69 | 321 | 0.9 | 3.5 | 0.00 | 0.00 | 0.00 | 41 | 1017.0 |
| 20260503224004 | 69 | 283 | 0.9 | 3.5 | 0.00 | 0.00 | 0.00 | 40 | 1017.1 |
| 20260503223604 | 69 | 263 | 0.9 | 3.5 | 0.00 | 0.00 | 0.00 | 40 | 1017.1 |
| 20260503223204 | 69 | 220 | 0.0 | 1.7 | 0.00 | 0.00 | 0.00 | 41 | 1017.1 |
| 20260503222804 | 69 | 221 | 0.9 | 4.3 | 0.00 | 0.00 | 0.00 | 47 | 1017.1 |
| 20260503222404 | 69 | 279 | 0.9 | 4.3 | 0.00 | 0.00 | 0.00 | 41 | 1017.2 |
| 20260503222004 | 70 | 325 | 0.9 | 4.3 | 0.00 | 0.00 | 0.00 | 46 | 1017.2 |
| 20260503221604 | 70 | 344 | 0.9 | 3.5 | 0.00 | 0.00 | 0.00 | 45 | 1017.3 |
| 20260503221204 | 70 | 343 | 0.9 | 3.5 | 0.00 | 0.00 | 0.00 | 43 | 1017.3 |
| 20260503220804 | 70 | 342 | 0.9 | 3.5 | 0.00 | 0.00 | 0.00 | 39 | 1017.3 |
| 20260503220425 | 70 | 334 | 0.9 | 3.5 | 0.00 | 0.00 | 0.00 | 43 | 1017.4 |